Time;durP1;ratioP1;P1;durP2;ratioP2;P2;SDS_P1;SDS_P2;PMS_P1;PMS_P2;Temp;Humidity;BMP_temperature;BMP_pressure;BME280_temperature;BME280_humidity;BME280_pressure;Samples;Min_cycle;Max_cycle;Signal;HPM_P1;HPM_P2
2023/09/01 00:00:09;;;;;;;7.23;4.10;;;13.10;99.90;;;;;;5133956;27;20045;-76
2023/09/01 00:02:35;;;;;;;6.37;3.50;;;13.10;99.90;;;;;;5133388;27;20078;-75
2023/09/01 00:05:02;;;;;;;5.77;3.13;;;13.10;99.90;;;;;;5133199;27;20288;-76
2023/09/01 00:07:28;;;;;;;5.67;2.80;;;13.10;99.90;;;;;;5099217;27;20281;-76
2023/09/01 00:09:54;;;;;;;6.13;3.17;;;13.10;99.90;;;;;;5133218;27;20346;-76
2023/09/01 00:12:20;;;;;;;7.27;3.10;;;13.10;99.90;;;;;;5115543;27;20387;-76
2023/09/01 00:14:45;;;;;;;8.23;3.10;;;13.10;99.90;;;;;;5134030;27;20043;-76
2023/09/01 00:17:12;;;;;;;7.07;3.37;;;13.00;99.90;;;;;;5133845;27;20043;-76
2023/09/01 00:19:39;;;;;;;7.73;3.40;;;13.00;99.90;;;;;;5132829;28;20395;-76
2023/09/01 00:22:05;;;;;;;7.80;3.23;;;12.90;99.90;;;;;;5134029;27;20273;-76
2023/09/01 00:24:32;;;;;;;7.10;3.17;;;12.90;99.90;;;;;;5133610;27;20288;-76
2023/09/01 00:26:59;;;;;;;6.37;3.30;;;12.90;99.90;;;;;;5132699;28;20188;-76
2023/09/01 00:29:24;;;;;;;6.77;3.50;;;12.90;99.90;;;;;;5132417;28;20605;-76
2023/09/01 00:31:51;;;;;;;7.00;3.30;;;12.90;99.90;;;;;;5132683;28;20437;-76
2023/09/01 00:34:16;;;;;;;7.03;3.00;;;12.90;99.90;;;;;;5132505;28;20151;-76
2023/09/01 00:36:43;;;;;;;8.20;3.90;;;12.80;99.90;;;;;;5133889;27;20310;-76
2023/09/01 00:39:08;;;;;;;6.33;3.50;;;12.80;99.90;;;;;;5133839;27;20043;-76
2023/09/01 00:41:35;;;;;;;5.87;3.60;;;12.80;99.90;;;;;;5132490;28;20291;-76
2023/09/01 00:44:03;;;;;;;7.07;3.33;;;12.70;99.90;;;;;;5098898;28;20061;-76
2023/09/01 00:46:31;;;;;;;6.27;3.00;;;12.70;99.90;;;;;;5132569;28;20288;-76
2023/09/01 00:48:57;;;;;;;8.17;3.07;;;12.80;99.90;;;;;;5133013;28;20690;-76
2023/09/01 00:51:25;;;;;;;9.30;3.37;;;12.80;99.90;;;;;;5133351;27;20304;-76
2023/09/01 00:53:51;;;;;;;5.27;3.13;;;12.70;99.90;;;;;;5133973;27;20716;-76
2023/09/01 00:56:18;;;;;;;5.80;3.07;;;12.70;99.90;;;;;;5115390;28;20316;-76
2023/09/01 00:58:45;;;;;;;5.70;3.30;;;12.70;99.90;;;;;;5098905;28;20288;-76
2023/09/01 01:01:11;;;;;;;6.67;3.30;;;12.70;99.90;;;;;;5133655;27;20273;-76
2023/09/01 01:03:38;;;;;;;7.63;3.33;;;12.70;99.90;;;;;;5115333;28;20332;-76
2023/09/01 01:06:12;;;;;;;5.50;2.93;;;12.70;99.90;;;;;;5115718;28;20285;-76
2023/09/01 01:09:08;;;;;;;8.55;3.58;;;12.70;99.90;;;;;;5133358;27;20277;-75
2023/09/01 01:11:44;;;;;;;7.10;3.60;;;12.80;99.90;;;;;;5133253;27;20047;-76
2023/09/01 01:14:34;;;;;;;6.90;3.83;;;12.80;99.90;;;;;;5132824;28;20704;-76
2023/09/01 01:17:00;;;;;;;5.90;3.20;;;12.80;99.90;;;;;;5117335;28;20285;-76
2023/09/01 01:19:42;;;;;;;7.13;2.93;;;12.70;99.90;;;;;;5133295;28;20624;-76
2023/09/01 01:22:08;;;;;;;5.67;2.77;;;12.60;99.90;;;;;;5115114;28;20788;-75
2023/09/01 01:24:35;;;;;;;5.53;3.07;;;12.50;99.90;;;;;;5133192;27;20338;-76
2023/09/01 01:27:01;;;;;;;6.30;2.70;;;12.60;99.90;;;;;;5118986;27;20398;-76
2023/09/01 01:29:27;;;;;;;5.87;2.93;;;12.60;99.90;;;;;;5135911;27;20283;-76
2023/09/01 01:31:53;;;;;;;6.23;2.80;;;12.50;99.90;;;;;;5135902;27;20043;-75
2023/09/01 01:34:42;;;;;;;7.03;3.20;;;12.70;99.90;;;;;;5136938;27;20143;-77
2023/09/01 01:37:21;;;;;;;6.37;3.20;;;12.60;99.90;;;;;;5137179;27;20269;-76
2023/09/01 01:39:50;;;;;;;7.37;3.23;;;12.70;99.90;;;;;;5136137;27;20372;-75
2023/09/01 01:42:18;;;;;;;6.13;2.93;;;12.60;99.90;;;;;;5135800;27;20281;-75
2023/09/01 01:44:49;;;;;;;4.87;2.67;;;12.50;99.90;;;;;;5136994;27;20269;-75
2023/09/01 01:47:15;;;;;;;6.33;2.90;;;12.60;99.90;;;;;;5135922;27;20352;-75
2023/09/01 01:49:41;;;;;;;8.03;3.13;;;12.60;99.90;;;;;;5118556;27;20288;-75
2023/09/01 01:52:07;;;;;;;7.03;3.20;;;12.60;99.90;;;;;;5118444;27;20387;-75
2023/09/01 01:54:33;;;;;;;8.47;3.33;;;12.60;99.90;;;;;;5118371;27;20420;-75
2023/09/01 01:56:59;;;;;;;7.80;3.07;;;12.50;99.90;;;;;;5135291;27;20042;-75
2023/09/01 01:59:25;;;;;;;5.30;2.80;;;12.50;99.90;;;;;;5135106;27;20313;-76
2023/09/01 02:01:51;;;;;;;8.03;3.20;;;12.50;99.90;;;;;;5118653;27;20320;-75
2023/09/01 02:04:17;;;;;;;7.77;2.93;;;12.50;99.90;;;;;;5136587;27;20471;-75
2023/09/01 02:06:43;;;;;;;5.40;3.17;;;12.50;99.90;;;;;;5135195;27;20176;-75
2023/09/01 02:09:12;;;;;;;6.87;3.53;;;12.60;99.90;;;;;;5136032;27;20506;-75
2023/09/01 02:11:37;;;;;;;5.63;3.00;;;12.50;99.90;;;;;;5135015;27;20367;-75
2023/09/01 02:14:05;;;;;;;6.10;2.90;;;12.50;99.90;;;;;;5136326;27;20269;-75
2023/09/01 02:16:30;;;;;;;6.07;2.73;;;12.50;99.90;;;;;;5136010;27;20038;-75
2023/09/01 02:18:57;;;;;;;6.63;3.13;;;12.50;99.90;;;;;;5134883;27;20679;-75
2023/09/01 02:21:24;;;;;;;5.23;3.00;;;12.50;99.90;;;;;;5136281;27;20288;-75
2023/09/01 02:23:50;;;;;;;6.20;2.83;;;12.40;99.90;;;;;;5135039;27;20280;-75
2023/09/01 02:26:20;;;;;;;5.60;2.70;;;12.40;99.90;;;;;;5143155;27;20295;-75
2023/09/01 02:28:46;;;;;;;6.93;3.23;;;12.40;99.90;;;;;;5156460;27;20379;-75
2023/09/01 02:31:12;;;;;;;6.30;3.13;;;12.30;99.90;;;;;;5138210;27;20304;-75
2023/09/01 02:33:38;;;;;;;8.03;3.67;;;12.30;99.90;;;;;;5138006;27;20284;-75
2023/09/01 02:36:28;;;;;;;5.17;2.90;;;12.30;99.90;;;;;;5138096;27;20039;-75
2023/09/01 02:38:55;;;;;;;7.33;3.23;;;12.30;99.90;;;;;;5138350;27;20051;-75
2023/09/01 02:41:21;;;;;;;8.40;2.80;;;12.30;99.90;;;;;;5138438;27;20371;-74
2023/09/01 02:43:47;;;;;;;7.27;3.30;;;12.20;99.90;;;;;;5137937;27;20295;-76
2023/09/01 02:46:13;;;;;;;6.60;2.90;;;12.30;99.90;;;;;;5156357;27;20271;-76
2023/09/01 02:48:39;;;;;;;6.00;3.00;;;12.20;99.90;;;;;;5137758;27;20303;-76
2023/09/01 02:51:05;;;;;;;6.87;2.77;;;12.20;99.90;;;;;;5156138;27;20091;-75
2023/09/01 02:53:32;;;;;;;8.87;2.90;;;12.20;99.90;;;;;;5155959;27;20055;-76
2023/09/01 02:55:57;;;;;;;7.67;3.40;;;12.30;99.90;;;;;;5137631;27;20296;-76
2023/09/01 02:58:24;;;;;;;5.83;3.00;;;12.20;99.90;;;;;;5137764;27;20612;-75
2023/09/01 03:00:51;;;;;;;6.70;3.00;;;12.20;99.90;;;;;;5155750;27;20039;-76
2023/09/01 03:03:19;;;;;;;5.57;2.90;;;12.20;99.90;;;;;;5137674;27;20298;-76
2023/09/01 03:05:46;;;;;;;9.00;2.77;;;12.10;99.90;;;;;;5137173;27;20679;-76
2023/09/01 03:08:12;;;;;;;6.00;2.33;;;12.10;99.90;;;;;;5155913;27;20284;-75
2023/09/01 03:10:38;;;;;;;6.63;2.90;;;12.10;99.90;;;;;;5155535;27;20295;-75
2023/09/01 03:13:04;;;;;;;5.63;2.77;;;12.10;99.90;;;;;;5137316;27;20130;-75
2023/09/01 03:15:30;;;;;;;6.93;2.97;;;12.10;99.90;;;;;;5155766;27;20284;-77
2023/09/01 03:17:56;;;;;;;4.87;2.33;;;12.10;99.90;;;;;;5155834;27;20280;-76
2023/09/01 03:20:23;;;;;;;5.00;3.10;;;12.00;99.90;;;;;;5120356;27;20623;-75
2023/09/01 03:22:49;;;;;;;6.27;2.70;;;12.00;99.90;;;;;;5155400;27;20042;-75
2023/09/01 03:25:16;;;;;;;6.20;2.60;;;12.00;99.90;;;;;;5103393;27;20632;-75
2023/09/01 03:27:41;;;;;;;6.03;2.63;;;12.00;99.90;;;;;;5155203;27;20284;-76
2023/09/01 03:30:07;;;;;;;6.63;2.67;;;11.90;99.90;;;;;;5155472;27;20421;-76
2023/09/01 03:32:33;;;;;;;5.40;2.87;;;11.90;99.90;;;;;;5155175;27;20046;-76
2023/09/01 03:35:02;;;;;;;5.00;2.83;;;11.90;99.90;;;;;;5155405;27;20284;-76
2023/09/01 03:37:28;;;;;;;7.60;2.93;;;11.90;99.90;;;;;;5137331;27;20420;-75
2023/09/01 03:39:54;;;;;;;6.70;2.87;;;11.90;99.90;;;;;;5136839;27;20284;-76
2023/09/01 03:42:19;;;;;;;6.57;3.10;;;11.90;99.90;;;;;;5136822;27;20046;-75
2023/09/01 03:44:45;;;;;;;5.63;2.57;;;11.80;99.90;;;;;;5136786;27;20512;-76
2023/09/01 03:47:12;;;;;;;5.67;3.23;;;11.80;99.90;;;;;;5154887;27;20110;-75
2023/09/01 03:49:38;;;;;;;6.97;3.30;;;11.80;99.90;;;;;;5154611;27;20050;-76
2023/09/01 03:52:03;;;;;;;12.00;3.00;;;11.70;99.90;;;;;;5136588;27;20296;-76
2023/09/01 03:54:29;;;;;;;6.00;2.93;;;11.80;99.90;;;;;;5119734;27;20065;-76
2023/09/01 03:56:55;;;;;;;6.87;2.30;;;11.80;99.90;;;;;;5136491;27;20169;-76
2023/09/01 03:59:21;;;;;;;5.37;3.10;;;11.80;99.90;;;;;;5119568;27;20046;-76
2023/09/01 04:01:47;;;;;;;6.53;2.90;;;11.70;99.90;;;;;;5154900;27;20046;-76
2023/09/01 04:04:14;;;;;;;6.27;3.17;;;11.70;99.90;;;;;;5136757;27;20291;-76
2023/09/01 04:06:40;;;;;;;5.70;3.10;;;11.70;99.90;;;;;;5154625;27;20279;-76
2023/09/01 04:09:06;;;;;;;6.57;3.67;;;11.70;99.90;;;;;;5154873;27;20276;-76
2023/09/01 04:11:32;;;;;;;6.27;3.00;;;11.70;99.90;;;;;;5154884;27;20385;-75
2023/09/01 04:13:59;;;;;;;6.37;2.70;;;11.70;99.90;;;;;;5154193;27;20790;-76
2023/09/01 04:16:24;;;;;;;4.50;2.40;;;11.60;99.90;;;;;;5136461;27;20767;-75
2023/09/01 04:18:51;;;;;;;6.13;2.83;;;11.60;99.90;;;;;;5136083;27;20360;-76
2023/09/01 04:21:17;;;;;;;6.17;3.30;;;11.60;99.90;;;;;;5119342;27;20039;-75
2023/09/01 04:23:43;;;;;;;7.33;3.10;;;11.60;99.90;;;;;;5154433;27;20707;-76
2023/09/01 04:26:09;;;;;;;6.43;3.37;;;11.60;99.90;;;;;;5154646;27;20043;-75
2023/09/01 04:28:35;;;;;;;5.40;2.60;;;11.70;99.90;;;;;;5154785;27;20288;-75
2023/09/01 04:31:02;;;;;;;7.03;2.93;;;11.60;99.90;;;;;;5154290;27;20494;-76
2023/09/01 04:33:31;;;;;;;4.73;2.30;;;11.50;99.90;;;;;;5136475;27;20057;-76
2023/09/01 04:36:03;;;;;;;6.40;2.80;;;11.50;99.90;;;;;;5154326;27;20337;-76
2023/09/01 04:38:29;;;;;;;6.93;2.67;;;11.60;99.90;;;;;;5136453;27;20288;-75
2023/09/01 04:41:00;;;;;;;5.30;2.60;;;11.50;99.90;;;;;;5135796;27;20279;-76
2023/09/01 04:43:29;;;;;;;7.00;2.77;;;11.50;99.90;;;;;;5102553;27;20302;-75
2023/09/01 04:45:56;;;;;;;6.93;3.37;;;11.50;99.90;;;;;;5135969;27;20288;-75
2023/09/01 04:48:22;;;;;;;6.70;3.20;;;11.50;99.90;;;;;;5136197;27;20272;-76
2023/09/01 04:50:48;;;;;;;5.60;2.90;;;11.40;99.90;;;;;;5118798;27;20284;-76
2023/09/01 04:53:14;;;;;;;6.47;3.03;;;11.40;99.90;;;;;;5119074;27;20632;-75
2023/09/01 04:55:41;;;;;;;6.57;2.80;;;11.40;99.90;;;;;;5136147;27;20130;-76
2023/09/01 04:58:07;;;;;;;5.17;2.53;;;11.50;99.90;;;;;;5135838;27;20295;-75
2023/09/01 05:00:33;;;;;;;8.63;2.60;;;11.60;99.90;;;;;;5120404;27;20276;-75
2023/09/01 05:02:58;;;;;;;5.43;2.70;;;11.60;99.90;;;;;;5139741;27;20043;-75
2023/09/01 05:05:24;;;;;;;5.27;2.50;;;11.50;99.90;;;;;;5158414;27;20047;-75
2023/09/01 05:07:50;;;;;;;6.63;2.40;;;11.50;99.90;;;;;;5158118;27;20478;-76
2023/09/01 05:10:16;;;;;;;6.13;2.70;;;;;;;;;;5157998;27;20592;-76
2023/09/01 05:12:41;;;;;;;5.10;2.90;;;11.50;99.90;;;;;;5139675;27;20065;-76
2023/09/01 05:15:08;;;;;;;5.53;2.70;;;11.50;99.90;;;;;;5139504;27;20763;-76
2023/09/01 05:17:33;;;;;;;4.90;2.70;;;11.50;99.90;;;;;;5139716;27;20482;-76
2023/09/01 05:19:59;;;;;;;5.40;3.10;;;11.60;99.90;;;;;;5139646;27;20294;-76
2023/09/01 05:22:25;;;;;;;5.97;2.70;;;11.60;99.90;;;;;;5122535;27;20134;-75
2023/09/01 05:24:53;;;;;;;6.10;3.13;;;11.60;99.90;;;;;;5157748;27;20047;-75
2023/09/01 05:27:19;;;;;;;6.83;2.73;;;11.70;99.90;;;;;;5135880;27;20293;-75
2023/09/01 05:29:48;;;;;;;5.23;2.93;;;11.70;99.90;;;;;;5137155;27;20744;-75
2023/09/01 05:32:15;;;;;;;6.93;3.00;;;11.70;99.90;;;;;;5135953;27;20298;-76
2023/09/01 05:34:41;;;;;;;6.97;3.37;;;11.70;99.90;;;;;;5101940;27;20289;-76
2023/09/01 05:37:11;;;;;;;6.40;3.30;;;11.80;99.90;;;;;;5135596;27;20333;-76
2023/09/01 05:39:38;;;;;;;6.70;3.70;;;11.80;99.90;;;;;;5135931;27;20277;-76
2023/09/01 05:42:04;;;;;;;6.03;3.60;;;11.90;99.90;;;;;;5136661;27;20324;-76
2023/09/01 05:44:30;;;;;;;5.60;3.23;;;12.00;99.90;;;;;;5137030;27;20285;-75
2023/09/01 05:46:56;;;;;;;5.57;3.27;;;12.10;99.90;;;;;;5118510;27;20675;-76
2023/09/01 05:49:26;;;;;;;7.40;3.43;;;12.20;99.90;;;;;;5118827;27;20296;-76
2023/09/01 05:51:52;;;;;;;6.83;3.10;;;12.20;99.90;;;;;;5135314;27;20340;-76
2023/09/01 05:54:18;;;;;;;6.03;3.00;;;12.30;99.90;;;;;;5135655;27;20361;-76
2023/09/01 05:56:45;;;;;;;4.87;3.00;;;12.40;99.90;;;;;;5135763;27;20054;-76
2023/09/01 05:59:10;;;;;;;7.17;2.80;;;12.40;99.90;;;;;;5135403;27;20930;-76
2023/09/01 06:01:36;;;;;;;7.33;2.73;;;12.50;99.90;;;;;;5136631;27;20280;-76
2023/09/01 06:04:03;;;;;;;7.30;3.20;;;12.60;99.90;;;;;;5136317;27;20108;-76
2023/09/01 06:06:31;;;;;;;7.13;2.83;;;12.60;99.90;;;;;;5118546;27;20047;-76
2023/09/01 06:08:58;;;;;;;8.47;3.30;;;12.70;99.90;;;;;;5136172;27;20380;-76
2023/09/01 06:11:24;;;;;;;6.03;2.90;;;12.90;99.90;;;;;;5136336;27;20301;-76
2023/09/01 06:13:49;;;;;;;7.17;3.07;;;13.00;99.90;;;;;;5135182;27;20602;-76
2023/09/01 06:16:15;;;;;;;8.57;3.17;;;13.10;99.90;;;;;;5117757;27;20372;-76
2023/09/01 06:18:41;;;;;;;5.87;2.90;;;13.50;99.90;;;;;;5136435;27;20049;-76
2023/09/01 06:21:06;;;;;;;9.60;3.10;;;14.30;99.90;;;;;;5134969;27;20047;-76
2023/09/01 06:23:32;;;;;;;4.73;2.47;;;15.30;99.90;;;;;;5118097;27;20082;-76
2023/09/01 06:25:58;;;;;;;6.43;2.80;;;16.40;99.90;;;;;;5135858;27;20043;-77
2023/09/01 06:28:23;;;;;;;6.50;2.67;;;17.50;99.90;;;;;;5155298;27;20063;-76
2023/09/01 06:30:49;;;;;;;6.67;2.57;;;18.10;99.90;;;;;;5138306;27;20050;-77
2023/09/01 06:33:15;;;;;;;4.83;2.30;;;18.50;99.90;;;;;;5138200;27;20075;-77
2023/09/01 06:35:42;;;;;;;6.60;2.33;;;18.60;99.90;;;;;;5138504;27;20047;-76
2023/09/01 06:38:08;;;;;;;8.20;2.37;;;18.60;99.90;;;;;;5156328;27;20046;-76
2023/09/01 06:40:34;;;;;;;7.97;2.87;;;18.40;99.90;;;;;;5138285;27;20071;-76
2023/09/01 06:43:06;;;;;;;7.20;2.20;;;18.40;99.90;;;;;;5138078;27;20105;-76
2023/09/01 06:45:32;;;;;;;6.13;3.00;;;18.70;99.90;;;;;;5138098;27;20506;-76
2023/09/01 06:47:58;;;;;;;6.67;2.40;;;18.80;99.90;;;;;;5120691;27;20057;-77
2023/09/01 06:50:24;;;;;;;4.73;2.13;;;18.60;99.90;;;;;;5138030;27;20042;-76
2023/09/01 06:52:50;;;;;;;5.07;2.33;;;18.30;99.90;;;;;;5120688;27;20038;-75
2023/09/01 06:55:17;;;;;;;8.27;2.67;;;18.30;99.90;;;;;;5155701;27;20047;-75
2023/09/01 06:57:43;;;;;;;7.93;2.50;;;18.50;99.90;;;;;;5121222;27;20043;-75
2023/09/01 07:00:18;;;;;;;4.87;2.37;;;18.80;99.90;;;;;;5120484;27;20042;-75
2023/09/01 07:02:43;;;;;;;5.78;2.75;;;19.20;99.90;;;;;;5137943;27;20053;-76
2023/09/01 07:05:09;;;;;;;5.77;2.13;;;19.60;99.90;;;;;;5119919;27;20490;-76
2023/09/01 07:07:35;;;;;;;5.97;2.30;;;20.30;99.90;;;;;;5120024;27;20058;-76
2023/09/01 07:10:01;;;;;;;5.63;2.40;;;20.90;99.90;;;;;;5155727;27;20557;-72
2023/09/01 07:12:28;;;;;;;4.83;2.00;;;21.40;99.90;;;;;;5103336;27;20188;-79
2023/09/01 07:14:54;;;;;;;3.83;1.80;;;21.90;99.90;;;;;;5120283;27;20100;-78
2023/09/01 07:17:23;;;;;;;6.23;1.90;;;21.80;99.90;;;;;;5155573;27;20047;-80
2023/09/01 07:19:49;;;;;;;6.23;2.13;;;21.50;99.90;;;;;;5120992;27;20051;-77
2023/09/01 07:22:15;;;;;;;5.13;2.30;;;20.80;99.90;;;;;;5119825;27;20057;-76
2023/09/01 07:24:41;;;;;;;5.97;2.17;;;20.10;99.90;;;;;;5119896;27;20058;-75
2023/09/01 07:27:07;;;;;;;5.07;2.00;;;19.50;99.90;;;;;;5102559;27;20082;-76
2023/09/01 07:29:33;;;;;;;10.00;2.13;;;19.10;99.90;;;;;;5155596;27;20115;-76
2023/09/01 07:32:03;;;;;;;4.97;2.00;;;18.80;99.90;;;;;;5137009;27;20039;-76
2023/09/01 07:34:29;;;;;;;6.33;2.20;;;18.50;99.90;;;;;;5136168;27;20130;-75
2023/09/01 07:36:55;;;;;;;5.70;2.20;;;18.30;99.90;;;;;;5137245;27;20470;-75
2023/09/01 07:39:21;;;;;;;4.87;2.43;;;18.20;99.90;;;;;;5154834;27;20492;-75
2023/09/01 07:41:47;;;;;;;5.77;2.33;;;17.90;99.90;;;;;;5136853;27;20030;-80
2023/09/01 07:44:16;;;;;;;7.33;2.47;;;17.70;99.90;;;;;;5119693;27;20053;-74
2023/09/01 07:46:45;;;;;;;5.93;2.00;;;17.60;99.90;;;;;;5136992;27;20050;-75
2023/09/01 07:49:10;;;;;;;6.70;2.63;;;17.50;99.90;;;;;;5119602;27;20053;-74
2023/09/01 07:51:38;;;;;;;7.13;2.53;;;17.40;99.90;;;;;;5135981;27;20042;-71
2023/09/01 07:54:04;;;;;;;8.47;2.80;;;17.40;99.90;;;;;;5133775;27;20050;-72
2023/09/01 07:56:32;;;;;;;6.80;2.70;;;17.30;99.90;;;;;;5153812;27;20038;-72
2023/09/01 07:58:58;;;;;;;10.87;2.87;;;17.40;99.90;;;;;;5154410;27;20035;-73
2023/09/01 08:01:24;;;;;;;6.10;2.73;;;17.40;99.90;;;;;;5154311;27;20497;-73
2023/09/01 08:03:49;;;;;;;8.77;2.90;;;17.50;99.90;;;;;;5154613;27;20039;-73
2023/09/01 08:06:15;;;;;;;7.07;2.60;;;17.60;99.90;;;;;;5136446;27;20056;-73
2023/09/01 08:08:41;;;;;;;6.63;2.77;;;17.50;99.90;;;;;;5154535;27;20479;-74
2023/09/01 08:11:07;;;;;;;6.17;2.33;;;17.60;99.90;;;;;;5154412;27;20099;-76
2023/09/01 08:13:33;;;;;;;7.07;3.13;;;17.60;99.90;;;;;;5154818;27;20042;-74
2023/09/01 08:15:59;;;;;;;6.27;2.30;;;17.70;99.90;;;;;;5154472;27;20482;-74
2023/09/01 08:18:24;;;;;;;6.80;2.73;;;17.80;99.90;;;;;;5119162;27;20043;-74
2023/09/01 08:20:50;;;;;;;5.60;2.50;;;17.80;99.90;;;;;;5155023;27;20050;-74
2023/09/01 08:23:21;;;;;;;7.33;2.80;;;17.80;99.90;;;;;;5136265;27;20471;-75
2023/09/01 08:25:47;;;;;;;6.97;2.63;;;17.90;99.90;;;;;;5154735;27;20053;-74
2023/09/01 08:28:13;;;;;;;5.70;2.30;;;17.80;99.90;;;;;;5135638;27;20066;-74
2023/09/01 08:30:38;;;;;;;6.23;3.00;;;17.90;99.90;;;;;;5136130;27;20054;-74
2023/09/01 08:33:04;;;;;;;7.50;2.50;;;17.90;99.90;;;;;;5136119;27;20046;-75
2023/09/01 08:35:30;;;;;;;6.77;2.60;;;17.90;99.90;;;;;;5155690;27;20042;-76
2023/09/01 08:37:56;;;;;;;7.10;2.63;;;17.80;99.90;;;;;;5140487;27;20034;-76
2023/09/01 08:40:22;;;;;;;7.43;2.53;;;17.70;99.90;;;;;;5158533;27;20046;-76
2023/09/01 08:42:49;;;;;;;6.03;2.73;;;17.70;99.90;;;;;;5104821;27;20046;-69
2023/09/01 08:45:16;;;;;;;7.17;2.80;;;17.60;99.90;;;;;;5158050;27;20103;-75
2023/09/01 08:47:47;;;;;;;8.33;3.37;;;17.60;99.90;;;;;;5140494;27;20035;-75
2023/09/01 08:50:14;;;;;;;6.30;2.77;;;17.70;99.90;;;;;;5123023;27;20125;-74
2023/09/01 08:52:46;;;;;;;6.43;2.23;;;17.70;99.90;;;;;;5123175;27;20043;-73
2023/09/01 08:55:17;;;;;;;5.37;2.37;;;17.70;99.90;;;;;;5158497;27;20051;-77
2023/09/01 08:57:44;;;;;;;6.63;2.00;;;17.70;99.90;;;;;;5140236;27;20039;-74
2023/09/01 09:00:10;;;;;;;7.13;2.60;;;17.70;99.90;;;;;;5140008;27;20099;-75
2023/09/01 09:02:40;;;;;;;6.07;2.30;;;17.70;99.90;;;;;;5158098;27;20118;-75
2023/09/01 09:05:08;;;;;;;5.30;2.33;;;17.70;99.90;;;;;;5140323;27;20367;-74
2023/09/01 09:07:34;;;;;;;5.60;2.50;;;17.70;99.90;;;;;;5158168;27;20057;-73
2023/09/01 09:10:00;;;;;;;6.83;1.83;;;17.60;99.90;;;;;;5158328;27;20046;-74
2023/09/01 09:12:41;;;;;;;7.70;2.00;;;17.60;99.90;;;;;;5158036;27;20043;-74
2023/09/01 09:15:08;;;;;;;6.70;2.93;;;17.60;99.90;;;;;;5139717;27;20085;-73
2023/09/01 09:17:44;;;;;;;6.83;2.20;;;17.60;99.90;;;;;;5122622;27;20047;-74
2023/09/01 09:20:12;;;;;;;5.43;1.80;;;17.70;99.90;;;;;;5158163;27;20091;-73
2023/09/01 09:22:59;;;;;;;7.43;1.87;;;17.70;99.90;;;;;;5157876;27;20126;-73
2023/09/01 09:25:33;;;;;;;4.30;1.73;;;17.80;99.90;;;;;;5157795;27;20035;-74
2023/09/01 09:28:00;;;;;;;4.68;1.60;;;17.90;99.90;;;;;;5158069;27;20094;-73
2023/09/01 09:30:27;;;;;;;4.90;1.80;;;17.90;99.90;;;;;;5157319;27;20039;-74
2023/09/01 09:33:06;;;;;;;5.37;2.20;;;17.90;99.90;;;;;;5139466;27;20050;-74
2023/09/01 09:35:47;;;;;;;4.80;1.60;;;17.90;99.90;;;;;;5139105;27;20363;-74
2023/09/01 09:38:13;;;;;;;7.27;2.17;;;18.10;99.90;;;;;;5139582;27;20050;-74
2023/09/01 09:40:39;;;;;;;4.93;1.73;;;18.00;99.90;;;;;;5138652;27;20076;-74
2023/09/01 09:43:10;;;;;;;4.40;1.60;;;18.00;99.90;;;;;;5138929;27;20043;-72
2023/09/01 09:45:38;;;;;;;7.03;1.93;;;18.00;99.90;;;;;;5138777;27;20055;-71
2023/09/01 09:48:05;;;;;;;6.67;1.93;;;17.90;99.90;;;;;;5157632;27;20447;-74
2023/09/01 09:50:32;;;;;;;4.77;2.00;;;17.90;99.90;;;;;;5155275;27;20046;-68
2023/09/01 09:53:00;;;;;;;6.83;2.30;;;17.90;99.90;;;;;;5156907;27;20107;-75
2023/09/01 09:55:28;;;;;;;5.33;2.10;;;17.90;99.90;;;;;;5154795;27;20099;-75
2023/09/01 09:58:06;;;;;;;6.60;2.10;;;17.80;99.90;;;;;;5157417;27;20081;-73
2023/09/01 10:00:35;;;;;;;5.50;2.00;;;17.90;99.90;;;;;;5157035;27;20075;-71
2023/09/01 10:03:03;;;;;;;6.53;1.83;;;17.90;99.90;;;;;;5157322;27;20436;-74
2023/09/01 10:05:32;;;;;;;6.87;2.37;;;17.90;99.90;;;;;;5156945;27;20085;-77
2023/09/01 10:08:09;;;;;;;6.10;2.23;;;17.90;99.90;;;;;;5138715;27;20043;-76
2023/09/01 10:10:37;;;;;;;6.97;2.20;;;17.90;99.90;;;;;;5138373;27;20047;-78
2023/09/01 10:13:07;;;;;;;6.13;2.00;;;18.00;99.90;;;;;;5138631;27;20478;-77
2023/09/01 10:15:34;;;;;;;5.13;1.83;;;18.00;99.90;;;;;;5138508;27;20427;-77
2023/09/01 10:18:05;;;;;;;5.53;1.77;;;18.10;99.90;;;;;;5138900;27;20098;-76
2023/09/01 10:20:33;;;;;;;6.83;2.20;;;18.20;99.90;;;;;;5138572;27;20050;-77
2023/09/01 10:23:02;;;;;;;4.67;2.27;;;18.20;99.90;;;;;;5156938;27;20088;-76
2023/09/01 10:25:28;;;;;;;4.47;1.97;;;18.30;99.90;;;;;;5138469;27;20047;-77
2023/09/01 10:28:10;;;;;;;5.67;2.20;;;18.30;99.90;;;;;;5156811;27;20051;-76
2023/09/01 10:30:41;;;;;;;5.43;2.60;;;18.40;99.90;;;;;;5138225;27;20059;-72
2023/09/01 10:33:22;;;;;;;5.53;2.17;;;18.40;99.90;;;;;;5137476;27;20043;-72
2023/09/01 10:35:53;;;;;;;7.03;2.57;;;18.60;99.90;;;;;;5138250;27;20050;-76
2023/09/01 10:38:23;;;;;;;5.83;2.10;;;18.60;99.90;;;;;;5156759;27;20114;-73
2023/09/01 10:40:53;;;;;;;5.77;2.20;;;18.70;99.90;;;;;;5138082;27;20051;-74
2023/09/01 10:43:44;;;;;;;5.77;2.40;;;18.70;99.90;;;;;;5156659;27;20050;-71
2023/09/01 10:46:16;;;;;;;5.50;2.37;;;18.80;99.90;;;;;;5156719;27;20511;-72
2023/09/01 10:48:52;;;;;;;7.63;2.43;;;18.80;99.90;;;;;;5136383;27;20359;-72
2023/09/01 10:51:20;;;;;;;8.57;2.33;;;18.90;99.90;;;;;;5119601;27;20045;-73
2023/09/01 10:53:46;;;;;;;7.73;2.30;;;19.00;99.90;;;;;;5154610;27;20051;-72
2023/09/01 10:56:14;;;;;;;4.10;2.30;;;19.10;99.90;;;;;;5154623;27;20498;-71
2023/09/01 10:58:43;;;;;;;5.93;2.23;;;19.20;99.90;;;;;;5155139;27;20451;-69
2023/09/01 11:01:37;;;;;;;5.87;2.30;;;19.30;99.90;;;;;;5155855;27;20498;-71
2023/09/01 11:04:21;;;;;;;5.87;2.10;;;19.30;99.90;;;;;;5137943;27;20119;-71
2023/09/01 11:06:56;;;;;;;8.00;3.00;;;19.20;99.90;;;;;;5155274;27;20103;-73
2023/09/01 11:09:34;;;;;;;7.43;3.40;;;19.10;99.90;;;;;;5134676;27;20051;-72
2023/09/01 11:12:04;;;;;;;6.60;2.90;;;19.10;99.90;;;;;;5132975;27;20035;-72
2023/09/01 11:14:34;;;;;;;4.53;2.20;;;19.10;99.90;;;;;;5133169;27;20340;-73
2023/09/01 11:17:01;;;;;;;6.77;2.97;;;19.20;99.90;;;;;;5133564;27;20047;-72
2023/09/01 11:19:27;;;;;;;10.17;3.97;;;19.20;99.90;;;;;;5135047;27;20462;-72
2023/09/01 11:21:53;;;;;;;7.97;3.10;;;19.20;99.90;;;;;;5135163;27;20085;-72
2023/09/01 11:24:22;;;;;;;6.83;3.50;;;19.20;99.90;;;;;;5134941;27;20049;-72
2023/09/01 11:26:49;;;;;;;9.83;4.37;;;19.20;99.90;;;;;;5133362;27;20086;-72
2023/09/01 11:29:15;;;;;;;9.57;3.53;;;19.10;99.90;;;;;;5134913;27;20059;-72
2023/09/01 11:31:42;;;;;;;10.60;4.33;;;19.30;99.90;;;;;;5134443;27;20077;-72
2023/09/01 11:34:08;;;;;;;7.33;3.33;;;19.30;99.90;;;;;;5134699;27;20043;-72
2023/09/01 11:36:44;;;;;;;8.37;3.90;;;19.40;99.90;;;;;;5133520;27;20076;-72
2023/09/01 11:39:09;;;;;;;8.37;3.20;;;19.50;99.90;;;;;;5134779;27;20494;-72
2023/09/01 11:41:36;;;;;;;7.50;3.33;;;19.60;99.90;;;;;;5134325;27;20051;-72
2023/09/01 11:44:02;;;;;;;8.47;3.30;;;19.60;99.90;;;;;;5134877;27;20073;-72
2023/09/01 11:46:36;;;;;;;9.00;2.83;;;19.60;99.90;;;;;;5133758;27;20089;-72
2023/09/01 11:49:02;;;;;;;9.40;2.87;;;19.70;99.90;;;;;;5134484;27;20043;-72
2023/09/01 11:51:40;;;;;;;6.77;2.93;;;19.80;99.90;;;;;;5134371;27;20035;-72
2023/09/01 11:54:07;;;;;;;6.73;3.27;;;19.80;99.90;;;;;;5134453;27;20051;-72
2023/09/01 11:56:33;;;;;;;11.00;4.07;;;19.90;99.90;;;;;;5134197;27;20047;-73
2023/09/01 11:59:00;;;;;;;8.87;3.47;;;20.00;99.90;;;;;;5134390;27;20061;-72
2023/09/01 12:01:35;;;;;;;8.67;3.00;;;20.00;99.90;;;;;;5134306;27;20112;-72
2023/09/01 12:04:07;;;;;;;;;;;20.00;99.90;;;;;;5135104;27;20047;-72
2023/09/01 12:06:44;;;;;;;7.00;3.50;;;20.10;99.90;;;;;;5134386;27;20279;-72
2023/09/01 12:09:15;;;;;;;9.03;3.27;;;20.20;99.90;;;;;;5134402;27;20050;-72
2023/09/01 12:11:54;;;;;;;11.87;3.67;;;20.10;99.90;;;;;;5133950;27;20044;-72
2023/09/01 12:14:25;;;;;;;6.60;2.83;;;20.20;99.90;;;;;;5134152;27;20489;-72
2023/09/01 12:16:53;;;;;;;6.70;2.80;;;20.20;99.90;;;;;;5133831;27;20047;-72
2023/09/01 12:19:22;;;;;;;7.57;3.33;;;20.30;99.90;;;;;;5134229;27;20055;-72
2023/09/01 12:21:49;;;;;;;9.37;3.73;;;20.40;99.90;;;;;;5133736;27;20079;-73
2023/09/01 12:24:14;;;;;;;8.17;3.63;;;20.40;99.90;;;;;;5134003;27;20054;-72
2023/09/01 12:26:40;;;;;;;8.73;3.77;;;20.40;99.90;;;;;;5133656;27;20043;-72
2023/09/01 12:29:06;;;;;;;8.67;3.67;;;20.40;99.90;;;;;;5134197;27;20090;-72
2023/09/01 12:31:31;;;;;;;8.07;3.53;;;20.30;99.90;;;;;;5132598;28;20122;-72
2023/09/01 12:33:57;;;;;;;8.37;3.20;;;20.30;99.90;;;;;;5133653;27;20054;-72
2023/09/01 12:36:23;;;;;;;9.07;3.40;;;20.30;99.90;;;;;;5134135;28;20039;-72
2023/09/01 12:38:49;;;;;;;7.80;3.60;;;20.30;99.90;;;;;;5133622;27;20046;-72
2023/09/01 12:41:14;;;;;;;12.17;3.77;;;20.30;99.90;;;;;;5134099;27;20043;-72
2023/09/01 12:43:41;;;;;;;9.37;3.20;;;20.30;99.90;;;;;;5133337;28;20394;-73
2023/09/01 12:46:07;;;;;;;7.17;3.07;;;20.20;99.90;;;;;;5133820;28;20043;-72
2023/09/01 12:48:33;;;;;;;8.47;3.20;;;20.10;99.90;;;;;;5133789;28;20049;-72
2023/09/01 12:50:58;;;;;;;7.47;3.93;;;20.10;99.90;;;;;;5133510;27;20051;-72